sensor_id;sensor_type;location;lat;lon;timestamp;temperature;humidity
58582;DHT22;44361;51.476;5.700;2024-02-21T00:00:57;9.10;99.90
58582;DHT22;44361;51.476;5.700;2024-02-21T00:03:22;9.10;99.90
58582;DHT22;44361;51.476;5.700;2024-02-21T00:05:48;9.10;99.90
58582;DHT22;44361;51.476;5.700;2024-02-21T00:08:13;9.10;99.90
58582;DHT22;44361;51.476;5.700;2024-02-21T00:10:39;9.10;99.90
58582;DHT22;44361;51.476;5.700;2024-02-21T00:13:04;9.10;99.90
58582;DHT22;44361;51.476;5.700;2024-02-21T00:15:30;9.20;99.90
58582;DHT22;44361;51.476;5.700;2024-02-21T00:17:56;9.10;99.90
58582;DHT22;44361;51.476;5.700;2024-02-21T00:20:21;9.10;99.90
58582;DHT22;44361;51.476;5.700;2024-02-21T00:22:47;9.10;99.90
58582;DHT22;44361;51.476;5.700;2024-02-21T00:25:12;9.10;99.90
58582;DHT22;44361;51.476;5.700;2024-02-21T00:27:38;9.10;99.90
58582;DHT22;44361;51.476;5.700;2024-02-21T00:30:07;9.10;99.90
58582;DHT22;44361;51.476;5.700;2024-02-21T00:32:33;9.10;99.90
58582;DHT22;44361;51.476;5.700;2024-02-21T00:35:00;9.10;99.90
58582;DHT22;44361;51.476;5.700;2024-02-21T00:37:25;9.10;99.90
58582;DHT22;44361;51.476;5.700;2024-02-21T00:39:51;9.20;99.90
58582;DHT22;44361;51.476;5.700;2024-02-21T00:42:16;9.20;99.90
58582;DHT22;44361;51.476;5.700;2024-02-21T00:44:42;9.20;99.90
58582;DHT22;44361;51.476;5.700;2024-02-21T00:47:07;9.20;99.90
58582;DHT22;44361;51.476;5.700;2024-02-21T00:49:33;9.20;99.90
58582;DHT22;44361;51.476;5.700;2024-02-21T00:51:58;9.20;99.90
58582;DHT22;44361;51.476;5.700;2024-02-21T00:54:24;9.10;99.90
58582;DHT22;44361;51.476;5.700;2024-02-21T00:56:49;9.10;99.90
58582;DHT22;44361;51.476;5.700;2024-02-21T00:59:15;9.00;99.90
58582;DHT22;44361;51.476;5.700;2024-02-21T01:01:40;8.90;99.90
58582;DHT22;44361;51.476;5.700;2024-02-21T01:04:11;8.80;99.90
58582;DHT22;44361;51.476;5.700;2024-02-21T01:06:37;8.70;99.90
58582;DHT22;44361;51.476;5.700;2024-02-21T01:09:03;8.60;99.90
58582;DHT22;44361;51.476;5.700;2024-02-21T01:11:29;8.50;99.90
58582;DHT22;44361;51.476;5.700;2024-02-21T01:13:55;8.50;99.90
58582;DHT22;44361;51.476;5.700;2024-02-21T01:16:21;8.50;99.90
58582;DHT22;44361;51.476;5.700;2024-02-21T01:18:46;8.50;99.90
58582;DHT22;44361;51.476;5.700;2024-02-21T01:21:12;8.50;99.90
58582;DHT22;44361;51.476;5.700;2024-02-21T01:23:37;8.50;99.90
58582;DHT22;44361;51.476;5.700;2024-02-21T01:26:03;8.50;99.90
58582;DHT22;44361;51.476;5.700;2024-02-21T01:28:29;8.50;99.90
58582;DHT22;44361;51.476;5.700;2024-02-21T01:30:56;8.60;99.90
58582;DHT22;44361;51.476;5.700;2024-02-21T01:33:21;8.60;99.90
58582;DHT22;44361;51.476;5.700;2024-02-21T01:35:47;8.60;99.90
58582;DHT22;44361;51.476;5.700;2024-02-21T01:38:13;8.60;99.90
58582;DHT22;44361;51.476;5.700;2024-02-21T01:40:39;8.60;99.90
58582;DHT22;44361;51.476;5.700;2024-02-21T01:43:15;8.60;99.90
58582;DHT22;44361;51.476;5.700;2024-02-21T01:45:41;8.60;99.90
58582;DHT22;44361;51.476;5.700;2024-02-21T01:48:07;8.50;99.90
58582;DHT22;44361;51.476;5.700;2024-02-21T01:50:33;8.50;99.90
58582;DHT22;44361;51.476;5.700;2024-02-21T01:52:59;8.40;99.90
58582;DHT22;44361;51.476;5.700;2024-02-21T01:55:25;8.40;99.90
58582;DHT22;44361;51.476;5.700;2024-02-21T01:57:51;8.40;99.90
58582;DHT22;44361;51.476;5.700;2024-02-21T02:00:17;8.40;99.90
58582;DHT22;44361;51.476;5.700;2024-02-21T02:02:43;8.40;99.90
58582;DHT22;44361;51.476;5.700;2024-02-21T02:05:10;8.50;99.90
58582;DHT22;44361;51.476;5.700;2024-02-21T02:07:36;8.50;99.90
58582;DHT22;44361;51.476;5.700;2024-02-21T02:10:02;8.50;99.90
58582;DHT22;44361;51.476;5.700;2024-02-21T02:12:28;8.50;99.90
58582;DHT22;44361;51.476;5.700;2024-02-21T02:15:00;8.50;99.90
58582;DHT22;44361;51.476;5.700;2024-02-21T02:17:26;8.60;99.90
58582;DHT22;44361;51.476;5.700;2024-02-21T02:19:51;8.60;99.90
58582;DHT22;44361;51.476;5.700;2024-02-21T02:22:22;8.70;99.90
58582;DHT22;44361;51.476;5.700;2024-02-21T02:24:48;8.70;99.90
58582;DHT22;44361;51.476;5.700;2024-02-21T02:27:14;8.70;99.90
58582;DHT22;44361;51.476;5.700;2024-02-21T02:29:39;8.70;99.90
58582;DHT22;44361;51.476;5.700;2024-02-21T02:32:05;8.70;99.90
58582;DHT22;44361;51.476;5.700;2024-02-21T02:34:31;8.60;99.90
58582;DHT22;44361;51.476;5.700;2024-02-21T02:36:57;8.70;99.90
58582;DHT22;44361;51.476;5.700;2024-02-21T02:39:22;8.60;99.90
58582;DHT22;44361;51.476;5.700;2024-02-21T02:41:48;8.60;99.90
58582;DHT22;44361;51.476;5.700;2024-02-21T02:44:13;8.60;99.90
58582;DHT22;44361;51.476;5.700;2024-02-21T02:46:42;8.60;99.90
58582;DHT22;44361;51.476;5.700;2024-02-21T02:49:08;8.50;99.90
58582;DHT22;44361;51.476;5.700;2024-02-21T02:51:33;8.60;99.90
58582;DHT22;44361;51.476;5.700;2024-02-21T02:53:59;8.60;99.90
58582;DHT22;44361;51.476;5.700;2024-02-21T02:56:25;8.60;99.90
58582;DHT22;44361;51.476;5.700;2024-02-21T02:58:50;8.60;99.90
58582;DHT22;44361;51.476;5.700;2024-02-21T03:01:16;8.70;99.90
58582;DHT22;44361;51.476;5.700;2024-02-21T03:03:41;8.70;99.90
58582;DHT22;44361;51.476;5.700;2024-02-21T03:06:07;8.70;99.90
58582;DHT22;44361;51.476;5.700;2024-02-21T03:08:32;8.70;99.90
58582;DHT22;44361;51.476;5.700;2024-02-21T03:10:59;8.70;99.90
58582;DHT22;44361;51.476;5.700;2024-02-21T03:13:25;8.70;99.90
58582;DHT22;44361;51.476;5.700;2024-02-21T03:15:51;8.70;99.90
58582;DHT22;44361;51.476;5.700;2024-02-21T03:18:16;8.60;99.90
58582;DHT22;44361;51.476;5.700;2024-02-21T03:20:42;8.60;99.90
58582;DHT22;44361;51.476;5.700;2024-02-21T03:23:07;8.50;99.90
58582;DHT22;44361;51.476;5.700;2024-02-21T03:25:33;8.50;99.90
58582;DHT22;44361;51.476;5.700;2024-02-21T03:27:59;8.50;99.90
58582;DHT22;44361;51.476;5.700;2024-02-21T03:30:24;8.60;99.90
58582;DHT22;44361;51.476;5.700;2024-02-21T03:32:50;8.60;99.90
58582;DHT22;44361;51.476;5.700;2024-02-21T03:35:16;8.60;99.90
58582;DHT22;44361;51.476;5.700;2024-02-21T03:37:41;8.60;99.90
58582;DHT22;44361;51.476;5.700;2024-02-21T03:40:08;8.60;99.90
58582;DHT22;44361;51.476;5.700;2024-02-21T03:42:34;8.60;99.90
58582;DHT22;44361;51.476;5.700;2024-02-21T03:45:00;8.60;99.90
58582;DHT22;44361;51.476;5.700;2024-02-21T03:47:25;8.70;99.90
58582;DHT22;44361;51.476;5.700;2024-02-21T03:49:51;8.70;99.90
58582;DHT22;44361;51.476;5.700;2024-02-21T03:52:16;8.60;99.90
58582;DHT22;44361;51.476;5.700;2024-02-21T03:54:42;8.60;99.90
58582;DHT22;44361;51.476;5.700;2024-02-21T03:57:08;8.60;99.90
58582;DHT22;44361;51.476;5.700;2024-02-21T03:59:33;8.60;99.90
58582;DHT22;44361;51.476;5.700;2024-02-21T04:01:59;8.60;99.90
58582;DHT22;44361;51.476;5.700;2024-02-21T04:04:25;8.60;99.90
58582;DHT22;44361;51.476;5.700;2024-02-21T04:06:51;8.60;99.90
58582;DHT22;44361;51.476;5.700;2024-02-21T04:09:17;8.50;99.90
58582;DHT22;44361;51.476;5.700;2024-02-21T04:11:43;8.60;99.90
58582;DHT22;44361;51.476;5.700;2024-02-21T04:14:09;8.50;99.90
58582;DHT22;44361;51.476;5.700;2024-02-21T04:16:36;8.50;99.90
58582;DHT22;44361;51.476;5.700;2024-02-21T04:19:02;8.50;99.90
58582;DHT22;44361;51.476;5.700;2024-02-21T04:21:28;8.50;99.90
58582;DHT22;44361;51.476;5.700;2024-02-21T04:23:53;8.50;99.90
58582;DHT22;44361;51.476;5.700;2024-02-21T04:26:19;8.60;99.90
58582;DHT22;44361;51.476;5.700;2024-02-21T04:28:47;8.60;99.90
58582;DHT22;44361;51.476;5.700;2024-02-21T04:31:13;8.60;99.90
58582;DHT22;44361;51.476;5.700;2024-02-21T04:33:38;8.60;99.90
58582;DHT22;44361;51.476;5.700;2024-02-21T04:36:04;8.60;99.90
58582;DHT22;44361;51.476;5.700;2024-02-21T04:38:31;8.60;99.90
58582;DHT22;44361;51.476;5.700;2024-02-21T04:40:56;8.50;99.90
58582;DHT22;44361;51.476;5.700;2024-02-21T04:43:24;8.50;99.90
58582;DHT22;44361;51.476;5.700;2024-02-21T04:45:50;8.50;99.90
58582;DHT22;44361;51.476;5.700;2024-02-21T04:48:19;8.50;99.90
58582;DHT22;44361;51.476;5.700;2024-02-21T04:50:45;8.50;99.90
58582;DHT22;44361;51.476;5.700;2024-02-21T04:53:10;8.50;99.90
58582;DHT22;44361;51.476;5.700;2024-02-21T04:55:36;8.50;99.90
58582;DHT22;44361;51.476;5.700;2024-02-21T04:58:01;8.50;99.90
58582;DHT22;44361;51.476;5.700;2024-02-21T05:00:27;8.50;99.90
58582;DHT22;44361;51.476;5.700;2024-02-21T05:02:53;8.50;99.90
58582;DHT22;44361;51.476;5.700;2024-02-21T05:05:18;8.50;99.90
58582;DHT22;44361;51.476;5.700;2024-02-21T05:07:45;8.50;99.90
58582;DHT22;44361;51.476;5.700;2024-02-21T05:10:11;8.50;99.90
58582;DHT22;44361;51.476;5.700;2024-02-21T05:12:37;8.50;99.90
58582;DHT22;44361;51.476;5.700;2024-02-21T05:15:03;8.50;99.90
58582;DHT22;44361;51.476;5.700;2024-02-21T05:17:29;8.50;99.90
58582;DHT22;44361;51.476;5.700;2024-02-21T05:19:54;8.50;99.90
58582;DHT22;44361;51.476;5.700;2024-02-21T05:22:20;8.50;99.90
58582;DHT22;44361;51.476;5.700;2024-02-21T05:24:45;8.50;99.90
58582;DHT22;44361;51.476;5.700;2024-02-21T05:27:11;8.50;99.90
58582;DHT22;44361;51.476;5.700;2024-02-21T05:29:36;8.50;99.90
58582;DHT22;44361;51.476;5.700;2024-02-21T05:32:02;8.50;99.90
58582;DHT22;44361;51.476;5.700;2024-02-21T05:34:28;8.50;99.90
58582;DHT22;44361;51.476;5.700;2024-02-21T05:36:53;8.50;99.90
58582;DHT22;44361;51.476;5.700;2024-02-21T05:39:19;8.50;99.90
58582;DHT22;44361;51.476;5.700;2024-02-21T05:41:47;8.50;99.90
58582;DHT22;44361;51.476;5.700;2024-02-21T05:44:13;8.50;99.90
58582;DHT22;44361;51.476;5.700;2024-02-21T05:46:39;8.50;99.90
58582;DHT22;44361;51.476;5.700;2024-02-21T05:49:04;8.50;99.90
58582;DHT22;44361;51.476;5.700;2024-02-21T05:51:34;8.50;99.90
58582;DHT22;44361;51.476;5.700;2024-02-21T05:53:59;8.50;99.90
58582;DHT22;44361;51.476;5.700;2024-02-21T05:56:25;8.50;99.90
58582;DHT22;44361;51.476;5.700;2024-02-21T05:58:50;8.50;99.90
58582;DHT22;44361;51.476;5.700;2024-02-21T06:01:16;8.50;99.90
58582;DHT22;44361;51.476;5.700;2024-02-21T06:03:43;8.50;99.90
58582;DHT22;44361;51.476;5.700;2024-02-21T06:06:08;8.50;99.90
58582;DHT22;44361;51.476;5.700;2024-02-21T06:08:34;8.50;99.90
58582;DHT22;44361;51.476;5.700;2024-02-21T06:11:00;8.50;99.90
58582;DHT22;44361;51.476;5.700;2024-02-21T06:13:26;8.50;99.90
58582;DHT22;44361;51.476;5.700;2024-02-21T06:15:52;8.50;99.90
58582;DHT22;44361;51.476;5.700;2024-02-21T06:18:18;8.50;99.90
58582;DHT22;44361;51.476;5.700;2024-02-21T06:20:44;8.50;99.90
58582;DHT22;44361;51.476;5.700;2024-02-21T06:23:11;8.60;99.90
58582;DHT22;44361;51.476;5.700;2024-02-21T06:25:36;8.50;99.90
58582;DHT22;44361;51.476;5.700;2024-02-21T06:28:02;8.50;99.90
58582;DHT22;44361;51.476;5.700;2024-02-21T06:30:27;8.60;99.90
58582;DHT22;44361;51.476;5.700;2024-02-21T06:32:53;8.50;99.90
58582;DHT22;44361;51.476;5.700;2024-02-21T06:35:21;8.60;99.90
58582;DHT22;44361;51.476;5.700;2024-02-21T06:37:47;8.60;99.90
58582;DHT22;44361;51.476;5.700;2024-02-21T06:40:16;8.50;99.90
58582;DHT22;44361;51.476;5.700;2024-02-21T06:42:42;8.50;99.90
58582;DHT22;44361;51.476;5.700;2024-02-21T06:45:08;8.60;99.90
58582;DHT22;44361;51.476;5.700;2024-02-21T06:47:33;8.60;99.90
58582;DHT22;44361;51.476;5.700;2024-02-21T06:49:59;8.60;99.90
58582;DHT22;44361;51.476;5.700;2024-02-21T06:52:24;8.50;99.90
58582;DHT22;44361;51.476;5.700;2024-02-21T06:54:50;8.60;99.90
58582;DHT22;44361;51.476;5.700;2024-02-21T06:57:16;8.60;99.90
58582;DHT22;44361;51.476;5.700;2024-02-21T06:59:42;8.50;99.90
58582;DHT22;44361;51.476;5.700;2024-02-21T07:02:08;8.50;99.90
58582;DHT22;44361;51.476;5.700;2024-02-21T07:04:33;8.50;99.90
58582;DHT22;44361;51.476;5.700;2024-02-21T07:06:59;8.60;99.90
58582;DHT22;44361;51.476;5.700;2024-02-21T07:09:25;8.60;99.90
58582;DHT22;44361;51.476;5.700;2024-02-21T07:11:51;8.60;99.90
58582;DHT22;44361;51.476;5.700;2024-02-21T07:14:17;8.70;99.90
58582;DHT22;44361;51.476;5.700;2024-02-21T07:16:43;8.60;99.90
58582;DHT22;44361;51.476;5.700;2024-02-21T07:19:08;8.60;99.90
58582;DHT22;44361;51.476;5.700;2024-02-21T07:21:34;8.60;99.90
58582;DHT22;44361;51.476;5.700;2024-02-21T07:24:00;8.70;99.90
58582;DHT22;44361;51.476;5.700;2024-02-21T07:26:31;8.70;99.90
58582;DHT22;44361;51.476;5.700;2024-02-21T07:31:46;8.70;99.90
58582;DHT22;44361;51.476;5.700;2024-02-21T07:34:14;8.70;99.90
58582;DHT22;44361;51.476;5.700;2024-02-21T07:36:40;8.70;99.90
58582;DHT22;44361;51.476;5.700;2024-02-21T07:39:06;8.80;99.90
58582;DHT22;44361;51.476;5.700;2024-02-21T07:41:31;8.80;99.90
58582;DHT22;44361;51.476;5.700;2024-02-21T07:43:57;8.80;99.90
58582;DHT22;44361;51.476;5.700;2024-02-21T07:46:23;8.90;99.90
58582;DHT22;44361;51.476;5.700;2024-02-21T07:48:49;8.90;99.90
58582;DHT22;44361;51.476;5.700;2024-02-21T07:51:15;8.90;99.90
58582;DHT22;44361;51.476;5.700;2024-02-21T07:53:43;8.90;99.90
58582;DHT22;44361;51.476;5.700;2024-02-21T07:56:11;8.90;99.90
58582;DHT22;44361;51.476;5.700;2024-02-21T07:58:36;8.90;99.90
58582;DHT22;44361;51.476;5.700;2024-02-21T08:01:02;9.00;99.90
58582;DHT22;44361;51.476;5.700;2024-02-21T08:03:28;9.00;99.90
58582;DHT22;44361;51.476;5.700;2024-02-21T08:05:53;9.00;99.90
58582;DHT22;44361;51.476;5.700;2024-02-21T08:08:19;9.00;99.90
58582;DHT22;44361;51.476;5.700;2024-02-21T08:10:46;9.10;99.90
58582;DHT22;44361;51.476;5.700;2024-02-21T08:13:12;9.10;99.90
58582;DHT22;44361;51.476;5.700;2024-02-21T08:15:37;9.10;99.90
58582;DHT22;44361;51.476;5.700;2024-02-21T08:18:05;9.00;99.90
58582;DHT22;44361;51.476;5.700;2024-02-21T08:20:30;9.10;99.90
58582;DHT22;44361;51.476;5.700;2024-02-21T08:22:56;9.10;99.90
58582;DHT22;44361;51.476;5.700;2024-02-21T08:25:21;9.20;99.90
58582;DHT22;44361;51.476;5.700;2024-02-21T08:27:47;9.30;99.90
58582;DHT22;44361;51.476;5.700;2024-02-21T08:30:13;9.30;99.90
58582;DHT22;44361;51.476;5.700;2024-02-21T08:32:38;9.30;99.90
58582;DHT22;44361;51.476;5.700;2024-02-21T08:35:04;9.30;99.90
58582;DHT22;44361;51.476;5.700;2024-02-21T08:37:30;9.30;99.90
58582;DHT22;44361;51.476;5.700;2024-02-21T08:39:56;9.30;99.90
58582;DHT22;44361;51.476;5.700;2024-02-21T08:42:22;9.30;99.90
58582;DHT22;44361;51.476;5.700;2024-02-21T08:44:47;9.30;99.90
58582;DHT22;44361;51.476;5.700;2024-02-21T08:47:13;9.40;99.90
58582;DHT22;44361;51.476;5.700;2024-02-21T08:49:39;9.50;99.90
58582;DHT22;44361;51.476;5.700;2024-02-21T08:52:04;9.50;99.90
58582;DHT22;44361;51.476;5.700;2024-02-21T08:54:31;9.50;99.90
58582;DHT22;44361;51.476;5.700;2024-02-21T08:56:57;9.50;99.90
58582;DHT22;44361;51.476;5.700;2024-02-21T08:59:23;9.50;99.90
58582;DHT22;44361;51.476;5.700;2024-02-21T09:01:51;9.50;99.90
58582;DHT22;44361;51.476;5.700;2024-02-21T09:04:17;9.40;99.90
58582;DHT22;44361;51.476;5.700;2024-02-21T09:06:43;9.40;99.90
58582;DHT22;44361;51.476;5.700;2024-02-21T09:09:09;9.30;99.90
58582;DHT22;44361;51.476;5.700;2024-02-21T09:11:35;9.30;99.90
58582;DHT22;44361;51.476;5.700;2024-02-21T09:14:01;9.20;99.90
58582;DHT22;44361;51.476;5.700;2024-02-21T09:16:30;9.10;99.90
58582;DHT22;44361;51.476;5.700;2024-02-21T09:18:56;9.00;99.90
58582;DHT22;44361;51.476;5.700;2024-02-21T09:21:22;9.00;99.90
58582;DHT22;44361;51.476;5.700;2024-02-21T09:23:48;8.90;99.90
58582;DHT22;44361;51.476;5.700;2024-02-21T09:26:14;9.00;99.90
58582;DHT22;44361;51.476;5.700;2024-02-21T09:28:41;9.00;99.90
58582;DHT22;44361;51.476;5.700;2024-02-21T09:31:07;9.00;99.90
58582;DHT22;44361;51.476;5.700;2024-02-21T09:33:33;9.00;99.90
58582;DHT22;44361;51.476;5.700;2024-02-21T09:35:58;9.00;99.90
58582;DHT22;44361;51.476;5.700;2024-02-21T09:38:24;9.00;99.90
58582;DHT22;44361;51.476;5.700;2024-02-21T09:41:16;9.00;99.90
58582;DHT22;44361;51.476;5.700;2024-02-21T09:43:45;9.10;99.90
58582;DHT22;44361;51.476;5.700;2024-02-21T09:46:17;9.10;99.90
58582;DHT22;44361;51.476;5.700;2024-02-21T09:51:28;9.20;99.90
58582;DHT22;44361;51.476;5.700;2024-02-21T09:53:54;9.20;99.90
58582;DHT22;44361;51.476;5.700;2024-02-21T09:56:21;9.30;99.90
58582;DHT22;44361;51.476;5.700;2024-02-21T09:58:47;9.30;99.90
58582;DHT22;44361;51.476;5.700;2024-02-21T10:01:12;9.40;99.90
58582;DHT22;44361;51.476;5.700;2024-02-21T10:03:38;9.40;99.90
58582;DHT22;44361;51.476;5.700;2024-02-21T10:06:04;9.50;99.90
58582;DHT22;44361;51.476;5.700;2024-02-21T10:08:29;9.50;99.90
58582;DHT22;44361;51.476;5.700;2024-02-21T10:10:55;9.60;99.90
58582;DHT22;44361;51.476;5.700;2024-02-21T10:13:29;9.70;99.90
58582;DHT22;44361;51.476;5.700;2024-02-21T10:16:02;9.80;99.90
58582;DHT22;44361;51.476;5.700;2024-02-21T10:18:28;9.90;99.90
58582;DHT22;44361;51.476;5.700;2024-02-21T10:21:01;10.00;99.90
58582;DHT22;44361;51.476;5.700;2024-02-21T10:23:27;10.10;99.90
58582;DHT22;44361;51.476;5.700;2024-02-21T10:25:52;10.20;99.90
58582;DHT22;44361;51.476;5.700;2024-02-21T10:28:18;10.30;99.90
58582;DHT22;44361;51.476;5.700;2024-02-21T10:30:52;10.30;99.90
58582;DHT22;44361;51.476;5.700;2024-02-21T10:33:17;10.40;99.90
58582;DHT22;44361;51.476;5.700;2024-02-21T10:35:46;10.40;99.90
58582;DHT22;44361;51.476;5.700;2024-02-21T10:38:12;10.50;99.90
58582;DHT22;44361;51.476;5.700;2024-02-21T10:40:38;10.50;99.90
58582;DHT22;44361;51.476;5.700;2024-02-21T10:43:05;10.60;99.90
58582;DHT22;44361;51.476;5.700;2024-02-21T10:45:36;10.60;99.90
58582;DHT22;44361;51.476;5.700;2024-02-21T10:48:10;10.60;99.90
58582;DHT22;44361;51.476;5.700;2024-02-21T10:53:20;10.60;99.90
58582;DHT22;44361;51.476;5.700;2024-02-21T10:55:58;10.60;99.90
58582;DHT22;44361;51.476;5.700;2024-02-21T10:58:28;10.70;99.90
58582;DHT22;44361;51.476;5.700;2024-02-21T11:00:55;11.00;99.90
58582;DHT22;44361;51.476;5.700;2024-02-21T11:03:21;11.00;99.90
58582;DHT22;44361;51.476;5.700;2024-02-21T11:05:47;11.10;99.90
58582;DHT22;44361;51.476;5.700;2024-02-21T11:08:14;11.30;99.90
58582;DHT22;44361;51.476;5.700;2024-02-21T11:10:39;11.30;99.90
58582;DHT22;44361;51.476;5.700;2024-02-21T11:13:09;11.20;99.90
58582;DHT22;44361;51.476;5.700;2024-02-21T11:15:35;11.20;99.90
58582;DHT22;44361;51.476;5.700;2024-02-21T11:18:00;11.10;99.90
58582;DHT22;44361;51.476;5.700;2024-02-21T11:20:36;11.00;99.90
58582;DHT22;44361;51.476;5.700;2024-02-21T11:23:02;10.90;99.90
58582;DHT22;44361;51.476;5.700;2024-02-21T11:25:28;10.90;99.90
58582;DHT22;44361;51.476;5.700;2024-02-21T11:28:03;10.90;99.90
58582;DHT22;44361;51.476;5.700;2024-02-21T11:30:33;10.90;99.90
58582;DHT22;44361;51.476;5.700;2024-02-21T11:33:05;10.90;99.90
58582;DHT22;44361;51.476;5.700;2024-02-21T11:35:32;11.10;99.90
58582;DHT22;44361;51.476;5.700;2024-02-21T11:38:19;11.20;99.90
58582;DHT22;44361;51.476;5.700;2024-02-21T11:40:48;11.20;99.90
58582;DHT22;44361;51.476;5.700;2024-02-21T11:43:13;11.20;99.90
58582;DHT22;44361;51.476;5.700;2024-02-21T11:45:40;11.20;99.90
58582;DHT22;44361;51.476;5.700;2024-02-21T11:48:06;11.20;99.90
58582;DHT22;44361;51.476;5.700;2024-02-21T11:50:33;11.40;99.90
58582;DHT22;44361;51.476;5.700;2024-02-21T11:52:59;11.70;99.90
58582;DHT22;44361;51.476;5.700;2024-02-21T11:55:25;11.90;99.90
58582;DHT22;44361;51.476;5.700;2024-02-21T11:57:50;12.00;99.90
58582;DHT22;44361;51.476;5.700;2024-02-21T12:00:17;12.20;99.90
58582;DHT22;44361;51.476;5.700;2024-02-21T12:02:45;12.20;99.90
58582;DHT22;44361;51.476;5.700;2024-02-21T12:05:11;12.10;99.90
58582;DHT22;44361;51.476;5.700;2024-02-21T12:07:37;12.00;99.90
58582;DHT22;44361;51.476;5.700;2024-02-21T12:10:15;11.80;99.90
58582;DHT22;44361;51.476;5.700;2024-02-21T12:12:40;11.70;99.90
58582;DHT22;44361;51.476;5.700;2024-02-21T12:15:07;11.70;99.90
58582;DHT22;44361;51.476;5.700;2024-02-21T12:17:33;11.60;99.90
58582;DHT22;44361;51.476;5.700;2024-02-21T12:20:02;11.80;99.90
58582;DHT22;44361;51.476;5.700;2024-02-21T12:22:35;12.10;99.90
58582;DHT22;44361;51.476;5.700;2024-02-21T12:25:15;12.40;99.90
58582;DHT22;44361;51.476;5.700;2024-02-21T12:27:43;12.60;99.90
58582;DHT22;44361;51.476;5.700;2024-02-21T12:30:09;12.60;99.90
58582;DHT22;44361;51.476;5.700;2024-02-21T12:32:36;12.60;99.90
58582;DHT22;44361;51.476;5.700;2024-02-21T12:35:01;12.70;99.90
58582;DHT22;44361;51.476;5.700;2024-02-21T12:37:27;12.60;99.90
58582;DHT22;44361;51.476;5.700;2024-02-21T12:39:53;12.50;99.90
58582;DHT22;44361;51.476;5.700;2024-02-21T12:42:19;12.50;99.90
58582;DHT22;44361;51.476;5.700;2024-02-21T12:44:44;12.50;99.90
58582;DHT22;44361;51.476;5.700;2024-02-21T12:47:10;12.40;99.90
58582;DHT22;44361;51.476;5.700;2024-02-21T12:49:36;12.50;99.90
58582;DHT22;44361;51.476;5.700;2024-02-21T12:52:02;12.50;99.90
58582;DHT22;44361;51.476;5.700;2024-02-21T12:54:28;12.30;99.90
58582;DHT22;44361;51.476;5.700;2024-02-21T12:56:55;12.20;99.90
58582;DHT22;44361;51.476;5.700;2024-02-21T12:59:21;12.30;99.90
58582;DHT22;44361;51.476;5.700;2024-02-21T13:01:47;12.20;99.90
58582;DHT22;44361;51.476;5.700;2024-02-21T13:04:12;12.20;99.90
58582;DHT22;44361;51.476;5.700;2024-02-21T13:06:38;12.20;99.90
58582;DHT22;44361;51.476;5.700;2024-02-21T13:09:04;12.20;99.90
58582;DHT22;44361;51.476;5.700;2024-02-21T13:11:34;12.10;99.90
58582;DHT22;44361;51.476;5.700;2024-02-21T13:14:03;12.10;99.90
58582;DHT22;44361;51.476;5.700;2024-02-21T13:16:29;12.10;99.90
58582;DHT22;44361;51.476;5.700;2024-02-21T13:18:54;12.10;99.90
58582;DHT22;44361;51.476;5.700;2024-02-21T13:21:20;12.10;99.90
58582;DHT22;44361;51.476;5.700;2024-02-21T13:23:45;12.00;99.90
58582;DHT22;44361;51.476;5.700;2024-02-21T13:26:11;12.00;99.90
58582;DHT22;44361;51.476;5.700;2024-02-21T13:28:38;11.90;99.90
58582;DHT22;44361;51.476;5.700;2024-02-21T13:31:03;11.80;99.90
58582;DHT22;44361;51.476;5.700;2024-02-21T13:33:29;11.80;99.90
58582;DHT22;44361;51.476;5.700;2024-02-21T13:35:54;11.70;99.90
58582;DHT22;44361;51.476;5.700;2024-02-21T13:38:20;11.80;99.90
58582;DHT22;44361;51.476;5.700;2024-02-21T13:40:45;11.80;99.90
58582;DHT22;44361;51.476;5.700;2024-02-21T13:43:11;11.70;99.90
58582;DHT22;44361;51.476;5.700;2024-02-21T13:45:37;11.80;99.90
58582;DHT22;44361;51.476;5.700;2024-02-21T13:48:03;11.90;99.90
58582;DHT22;44361;51.476;5.700;2024-02-21T13:50:31;11.80;99.90
58582;DHT22;44361;51.476;5.700;2024-02-21T13:52:57;11.60;99.90
58582;DHT22;44361;51.476;5.700;2024-02-21T13:55:23;11.50;99.90
58582;DHT22;44361;51.476;5.700;2024-02-21T13:57:52;11.50;99.90
58582;DHT22;44361;51.476;5.700;2024-02-21T14:00:18;11.60;99.90
58582;DHT22;44361;51.476;5.700;2024-02-21T14:02:44;11.60;99.90
58582;DHT22;44361;51.476;5.700;2024-02-21T14:05:10;11.50;99.90
58582;DHT22;44361;51.476;5.700;2024-02-21T14:07:36;11.50;99.90
58582;DHT22;44361;51.476;5.700;2024-02-21T14:10:01;11.50;99.90
58582;DHT22;44361;51.476;5.700;2024-02-21T14:12:28;11.40;99.90
58582;DHT22;44361;51.476;5.700;2024-02-21T14:14:53;11.40;99.90
58582;DHT22;44361;51.476;5.700;2024-02-21T14:17:20;11.30;99.90
58582;DHT22;44361;51.476;5.700;2024-02-21T14:19:46;11.30;99.90
58582;DHT22;44361;51.476;5.700;2024-02-21T14:22:11;11.30;99.90
58582;DHT22;44361;51.476;5.700;2024-02-21T14:24:37;11.30;99.90
58582;DHT22;44361;51.476;5.700;2024-02-21T14:27:03;11.30;99.90
58582;DHT22;44361;51.476;5.700;2024-02-21T14:29:29;11.30;99.90
58582;DHT22;44361;51.476;5.700;2024-02-21T14:31:55;11.30;99.90
58582;DHT22;44361;51.476;5.700;2024-02-21T14:34:20;11.30;99.90
58582;DHT22;44361;51.476;5.700;2024-02-21T14:36:46;11.30;99.90
58582;DHT22;44361;51.476;5.700;2024-02-21T14:39:11;11.30;99.90
58582;DHT22;44361;51.476;5.700;2024-02-21T14:41:37;11.30;99.90
58582;DHT22;44361;51.476;5.700;2024-02-21T14:44:04;11.30;99.90
58582;DHT22;44361;51.476;5.700;2024-02-21T14:46:30;11.20;99.90
58582;DHT22;44361;51.476;5.700;2024-02-21T14:48:56;11.20;99.90
58582;DHT22;44361;51.476;5.700;2024-02-21T14:51:21;11.30;99.90
58582;DHT22;44361;51.476;5.700;2024-02-21T14:53:47;11.20;99.90
58582;DHT22;44361;51.476;5.700;2024-02-21T14:56:14;11.20;99.90
58582;DHT22;44361;51.476;5.700;2024-02-21T14:58:43;11.20;99.90
58582;DHT22;44361;51.476;5.700;2024-02-21T15:01:09;11.20;99.90
58582;DHT22;44361;51.476;5.700;2024-02-21T15:03:35;11.20;99.90
58582;DHT22;44361;51.476;5.700;2024-02-21T15:06:01;11.10;99.90
58582;DHT22;44361;51.476;5.700;2024-02-21T15:08:27;11.10;99.90
58582;DHT22;44361;51.476;5.700;2024-02-21T15:10:53;11.00;99.90
58582;DHT22;44361;51.476;5.700;2024-02-21T15:13:19;10.80;99.90
58582;DHT22;44361;51.476;5.700;2024-02-21T15:15:45;10.80;99.90
58582;DHT22;44361;51.476;5.700;2024-02-21T15:18:13;10.70;99.90
58582;DHT22;44361;51.476;5.700;2024-02-21T15:20:40;10.60;99.90
58582;DHT22;44361;51.476;5.700;2024-02-21T15:23:05;10.60;99.90
58582;DHT22;44361;51.476;5.700;2024-02-21T15:25:31;10.60;99.90
58582;DHT22;44361;51.476;5.700;2024-02-21T15:27:56;10.50;99.90
58582;DHT22;44361;51.476;5.700;2024-02-21T15:30:22;10.50;99.90
58582;DHT22;44361;51.476;5.700;2024-02-21T15:32:47;10.40;99.90
58582;DHT22;44361;51.476;5.700;2024-02-21T15:35:13;10.40;99.90
58582;DHT22;44361;51.476;5.700;2024-02-21T15:37:39;10.20;99.90
58582;DHT22;44361;51.476;5.700;2024-02-21T15:40:05;10.20;99.90
58582;DHT22;44361;51.476;5.700;2024-02-21T15:42:33;10.10;99.90